createdAt,value
2023-04-14T00:00:55.923Z,6.60
2023-04-14T00:03:24.357Z,5.00
2023-04-14T00:05:53.034Z,5.50
2023-04-14T00:08:21.253Z,5.00
2023-04-14T00:10:49.510Z,5.70
2023-04-14T00:13:17.702Z,5.60
2023-04-14T00:15:45.971Z,5.90
2023-04-14T00:18:14.169Z,5.40
2023-04-14T00:20:42.326Z,6.00
2023-04-14T00:23:10.858Z,7.20
2023-04-14T00:25:39.445Z,6.10
2023-04-14T00:28:07.701Z,6.60
2023-04-14T00:30:36.006Z,6.60
2023-04-14T00:33:04.358Z,5.50
2023-04-14T00:35:32.990Z,6.20
2023-04-14T00:38:01.244Z,6.50
2023-04-14T00:40:31.438Z,5.70
2023-04-14T00:42:59.749Z,5.70
2023-04-14T00:45:28.655Z,6.50
2023-04-14T00:47:58.699Z,12.80
2023-04-14T00:50:26.950Z,12.50
2023-04-14T00:52:56.228Z,10.60
2023-04-14T00:55:25.646Z,9.50
2023-04-14T00:57:55.070Z,8.10
2023-04-14T01:00:23.396Z,8.10
2023-04-14T01:02:51.935Z,7.60
2023-04-14T01:05:20.710Z,7.50
2023-04-14T01:07:49.897Z,9.10
2023-04-14T01:10:18.500Z,7.50
2023-04-14T01:13:17.210Z,7.30
2023-04-14T01:15:59.647Z,8.30
2023-04-14T01:18:39.982Z,8.90
2023-04-14T01:21:17.596Z,7.60
2023-04-14T01:24:24.949Z,8.10
2023-04-14T01:27:23.470Z,7.20
2023-04-14T01:30:17.940Z,8.60
2023-04-14T01:32:50.050Z,7.10
2023-04-14T01:35:26.092Z,7.90
2023-04-14T01:38:01.016Z,8.70
2023-04-14T01:40:33.454Z,7.60
2023-04-14T01:43:06.281Z,7.90
2023-04-14T01:45:39.772Z,8.10
2023-04-14T01:48:09.291Z,8.50
2023-04-14T01:50:39.317Z,8.30
2023-04-14T01:53:09.227Z,8.50
2023-04-14T01:55:38.984Z,7.40
2023-04-14T01:58:09.518Z,7.80
2023-04-14T02:00:39.757Z,9.00
2023-04-14T02:03:08.871Z,8.70
2023-04-14T02:05:39.861Z,9.20
2023-04-14T02:08:12.978Z,8.90
2023-04-14T02:10:46.136Z,9.10
2023-04-14T02:13:17.775Z,7.80
2023-04-14T02:15:48.927Z,8.50
2023-04-14T02:18:22.441Z,9.30
2023-04-14T02:20:52.866Z,8.90
2023-04-14T02:23:21.756Z,8.90
2023-04-14T02:26:18.808Z,9.50
2023-04-14T02:28:51.675Z,9.30
2023-04-14T02:31:24.050Z,9.60
2023-04-14T02:33:55.693Z,9.00
2023-04-14T02:36:34.525Z,9.30
2023-04-14T02:39:12.124Z,9.00
2023-04-14T02:41:44.530Z,9.70
2023-04-14T02:44:12.687Z,8.70
2023-04-14T02:46:46.682Z,8.40
2023-04-14T02:49:16.679Z,9.10
2023-04-14T02:51:47.787Z,8.30
2023-04-14T02:54:19.715Z,8.40
2023-04-14T02:56:49.806Z,9.30
2023-04-14T02:59:22.252Z,9.20
2023-04-14T03:02:02.415Z,13.50
2023-04-14T03:04:36.896Z,10.30
2023-04-14T03:07:09.618Z,8.90
2023-04-14T03:09:40.491Z,10.30
2023-04-14T03:12:14.750Z,9.50
2023-04-14T03:14:45.110Z,11.10
2023-04-14T03:17:15.055Z,9.60
2023-04-14T03:19:48.447Z,9.20
2023-04-14T03:22:18.581Z,10.00
2023-04-14T03:24:47.327Z,9.90
2023-04-14T03:27:28.296Z,10.10
2023-04-14T03:30:03.614Z,9.90
2023-04-14T03:32:42.327Z,10.50
2023-04-14T03:35:15.713Z,11.50
2023-04-14T03:37:46.724Z,13.30
2023-04-14T03:40:17.627Z,12.00
2023-04-14T03:42:49.136Z,12.30
2023-04-14T03:45:21.339Z,10.10
2023-04-14T03:47:55.663Z,13.80
2023-04-14T03:50:30.846Z,13.90
2023-04-14T03:52:59.753Z,12.30
2023-04-14T03:55:32.104Z,13.60
2023-04-14T03:58:02.640Z,12.20
2023-04-14T04:00:31.583Z,11.10
2023-04-14T04:03:01.617Z,10.60
2023-04-14T04:05:31.160Z,11.10
2023-04-14T04:08:04.062Z,10.40
2023-04-14T04:10:36.572Z,12.00
2023-04-14T04:13:13.018Z,11.90
2023-04-14T04:15:42.333Z,14.20
2023-04-14T04:18:15.560Z,12.30
2023-04-14T04:20:46.512Z,13.00
2023-04-14T04:23:18.587Z,13.30
2023-04-14T04:25:48.208Z,14.20
2023-04-14T04:28:23.210Z,10.80
2023-04-14T04:30:55.055Z,10.90
2023-04-14T04:33:24.286Z,10.20
2023-04-14T04:35:54.830Z,10.40
2023-04-14T04:38:24.706Z,7.50
2023-04-14T04:40:53.533Z,9.30
2023-04-14T04:43:25.387Z,10.80
2023-04-14T04:46:11.626Z,8.60
2023-04-14T04:51:08.949Z,9.80
2023-04-14T04:53:37.211Z,8.60
2023-04-14T04:56:06.851Z,12.00
2023-04-14T04:58:35.073Z,9.30
2023-04-14T05:01:10.520Z,7.90
2023-04-14T05:03:39.050Z,10.30
2023-04-14T05:06:08.378Z,10.10
2023-04-14T05:08:36.722Z,7.00
2023-04-14T05:11:06.414Z,6.40
2023-04-14T05:13:34.662Z,6.70
2023-04-14T05:16:08.158Z,8.20
2023-04-14T05:18:37.198Z,8.70
2023-04-14T05:21:13.495Z,8.60
2023-04-14T05:23:43.916Z,6.90
2023-04-14T05:28:44.436Z,6.00
2023-04-14T05:31:12.822Z,6.80
2023-04-14T05:33:43.112Z,5.60
2023-04-14T05:36:11.418Z,7.20
2023-04-14T05:38:43.158Z,6.40
2023-04-14T05:41:12.433Z,7.10
2023-04-14T05:43:40.869Z,6.10
2023-04-14T05:46:09.153Z,8.10
2023-04-14T05:48:38.298Z,6.70
2023-04-14T05:51:06.735Z,7.60
2023-04-14T05:53:34.941Z,7.00
2023-04-14T05:56:03.264Z,6.60
2023-04-14T05:58:31.491Z,7.50
2023-04-14T06:01:00.526Z,9.20
2023-04-14T06:03:29.098Z,6.50
2023-04-14T06:05:58.068Z,7.00
2023-04-14T06:08:26.314Z,7.40
2023-04-14T06:10:55.361Z,5.80
2023-04-14T06:13:23.539Z,6.90
2023-04-14T06:15:53.848Z,7.80
2023-04-14T06:18:26.232Z,6.00
2023-04-14T06:20:54.511Z,6.80
2023-04-14T06:23:22.792Z,6.30
2023-04-14T06:25:52.565Z,6.50
2023-04-14T06:28:24.336Z,7.10
2023-04-14T06:30:53.001Z,6.80
2023-04-14T06:33:22.083Z,6.80
2023-04-14T06:35:51.494Z,6.80
2023-04-14T06:38:19.695Z,6.80
2023-04-14T06:40:48.620Z,6.70
2023-04-14T06:43:18.309Z,6.00
2023-04-14T06:45:46.869Z,6.10
2023-04-14T06:48:16.310Z,8.80
2023-04-14T06:50:51.840Z,8.80
2023-04-14T06:53:19.995Z,9.50
2023-04-14T06:55:52.073Z,8.70
2023-04-14T06:58:21.641Z,7.10
2023-04-14T07:00:58.446Z,7.30
2023-04-14T07:03:28.335Z,6.30
2023-04-14T07:06:12.268Z,6.00
2023-04-14T07:08:40.775Z,6.40
2023-04-14T07:11:11.404Z,6.80
2023-04-14T07:13:40.979Z,7.50
2023-04-14T07:16:09.364Z,7.70
2023-04-14T07:18:37.658Z,8.00
2023-04-14T07:21:05.954Z,7.40
2023-04-14T07:23:34.560Z,6.50
2023-04-14T07:26:03.710Z,6.50
2023-04-14T07:28:32.737Z,6.50
2023-04-14T07:31:10.996Z,6.80
2023-04-14T07:33:41.510Z,7.60
2023-04-14T07:36:10.622Z,7.60
2023-04-14T07:38:38.995Z,7.20
2023-04-14T07:41:07.653Z,6.80
2023-04-14T07:43:36.127Z,6.80
2023-04-14T07:46:06.831Z,6.30
2023-04-14T07:48:37.025Z,7.10
2023-04-14T07:51:08.551Z,6.10
2023-04-14T07:53:42.495Z,7.90
2023-04-14T07:56:12.198Z,6.20
2023-04-14T07:58:40.508Z,6.70
2023-04-14T08:01:09.232Z,7.20
2023-04-14T08:03:37.893Z,7.80
2023-04-14T08:06:07.580Z,6.40
2023-04-14T08:08:36.943Z,6.60
2023-04-14T08:11:05.335Z,7.20
2023-04-14T08:13:35.992Z,7.00
2023-04-14T08:16:04.587Z,6.70
2023-04-14T08:18:33.779Z,7.30
2023-04-14T08:21:02.309Z,7.80
2023-04-14T08:23:30.493Z,6.60
2023-04-14T08:25:58.759Z,6.90
2023-04-14T08:28:29.297Z,7.40
2023-04-14T08:30:59.119Z,6.80
2023-04-14T08:33:27.828Z,7.40
2023-04-14T08:35:59.455Z,7.60
2023-04-14T08:38:29.462Z,8.00
2023-04-14T08:41:01.549Z,6.30
2023-04-14T08:43:30.105Z,5.70
2023-04-14T08:46:00.582Z,6.50
2023-04-14T08:48:31.260Z,6.50
2023-04-14T08:51:32.551Z,6.90
2023-04-14T08:54:03.268Z,7.90
2023-04-14T08:56:35.053Z,6.90
2023-04-14T08:59:04.477Z,6.80
2023-04-14T09:01:37.911Z,7.50
2023-04-14T09:04:08.285Z,6.40
2023-04-14T09:06:37.525Z,6.20
2023-04-14T09:09:09.551Z,5.90
2023-04-14T09:11:40.009Z,6.50
2023-04-14T09:14:11.308Z,7.30
2023-04-14T09:16:43.054Z,6.70
2023-04-14T09:19:11.648Z,7.30
2023-04-14T09:21:52.949Z,6.50
2023-04-14T09:24:32.205Z,7.00
2023-04-14T09:27:05.577Z,7.20
2023-04-14T09:29:34.363Z,6.70
2023-04-14T09:32:04.005Z,6.30
2023-04-14T09:34:32.583Z,7.20
2023-04-14T09:37:03.128Z,6.10
2023-04-14T09:39:33.005Z,6.50
2023-04-14T09:42:02.145Z,6.50
2023-04-14T09:44:31.579Z,6.30
2023-04-14T09:47:00.782Z,8.10
2023-04-14T09:49:30.138Z,6.80
2023-04-14T09:52:08.471Z,8.00
2023-04-14T09:54:40.538Z,7.40
2023-04-14T09:57:08.850Z,6.70
2023-04-14T09:59:40.558Z,7.20
2023-04-14T10:02:10.571Z,7.30
2023-04-14T10:04:39.640Z,7.80
2023-04-14T10:07:09.135Z,7.60
2023-04-14T10:09:38.830Z,7.80
2023-04-14T10:12:15.848Z,6.90
2023-04-14T10:14:44.690Z,5.50
2023-04-14T10:17:14.002Z,6.20
2023-04-14T10:19:42.337Z,6.60
2023-04-14T10:22:12.390Z,6.90
2023-04-14T10:24:41.871Z,6.30
2023-04-14T10:27:12.076Z,8.70
2023-04-14T10:29:42.327Z,7.50
2023-04-14T10:32:16.903Z,7.10
2023-04-14T10:35:03.670Z,8.00
2023-04-14T10:37:35.899Z,8.00
2023-04-14T10:40:07.381Z,8.20
2023-04-14T10:42:57.142Z,7.90
2023-04-14T10:45:25.532Z,7.30
2023-04-14T10:48:02.080Z,8.10
2023-04-14T10:50:46.803Z,8.90
2023-04-14T10:53:16.441Z,8.40
2023-04-14T10:55:51.989Z,7.20
2023-04-14T10:58:22.640Z,7.70
2023-04-14T11:00:50.990Z,7.60
2023-04-14T11:03:19.332Z,7.40
2023-04-14T11:05:52.775Z,7.50
2023-04-14T11:08:34.094Z,6.70
2023-04-14T11:11:04.425Z,7.10
2023-04-14T11:13:34.920Z,7.80
2023-04-14T11:16:07.965Z,7.70
2023-04-14T11:18:45.355Z,8.20
2023-04-14T11:21:17.442Z,7.20
2023-04-14T11:23:45.707Z,7.30
2023-04-14T11:26:14.294Z,7.90
2023-04-14T11:28:44.812Z,8.50
2023-04-14T11:31:15.973Z,8.10
2023-04-14T11:33:45.213Z,7.50
2023-04-14T11:36:14.448Z,8.90
2023-04-14T11:38:43.403Z,8.20
2023-04-14T11:41:15.851Z,9.40
2023-04-14T11:43:47.191Z,8.30
2023-04-14T11:46:16.610Z,8.80
2023-04-14T11:48:45.034Z,8.30
2023-04-14T11:51:13.536Z,9.10
2023-04-14T11:53:43.518Z,9.70
2023-04-14T11:56:13.342Z,8.90
2023-04-14T11:58:42.292Z,8.60
2023-04-14T12:01:14.537Z,7.60
2023-04-14T12:03:43.321Z,8.20
2023-04-14T12:06:12.599Z,7.90
2023-04-14T12:08:42.139Z,10.50
2023-04-14T12:11:14.948Z,9.00
2023-04-14T12:13:46.014Z,8.10
2023-04-14T12:16:17.276Z,8.30
2023-04-14T12:18:46.313Z,9.70
2023-04-14T12:21:21.481Z,8.10
2023-04-14T12:23:50.084Z,8.50
2023-04-14T12:26:20.631Z,8.60
2023-04-14T12:28:57.941Z,8.10
2023-04-14T12:31:30.076Z,8.50
2023-04-14T12:34:03.932Z,9.30
2023-04-14T12:36:48.681Z,8.00
2023-04-14T12:39:20.625Z,8.60
2023-04-14T12:41:48.951Z,7.80
2023-04-14T12:44:20.633Z,8.20
2023-04-14T12:46:54.200Z,8.40
2023-04-14T12:49:37.130Z,7.60
2023-04-14T12:52:05.836Z,8.80
2023-04-14T12:54:52.118Z,8.40
2023-04-14T12:57:22.393Z,9.20
2023-04-14T12:59:52.205Z,8.40
2023-04-14T13:02:20.735Z,8.70
2023-04-14T13:04:49.696Z,9.80
2023-04-14T13:07:19.171Z,9.30
2023-04-14T13:09:48.592Z,9.40
2023-04-14T13:12:16.860Z,9.70
2023-04-14T13:14:45.885Z,9.10
2023-04-14T13:17:15.351Z,8.30
2023-04-14T13:19:43.697Z,8.60
2023-04-14T13:22:13.885Z,8.70
2023-04-14T13:24:42.067Z,9.20
2023-04-14T13:27:11.685Z,9.10
2023-04-14T13:29:42.152Z,10.00
2023-04-14T13:32:11.854Z,10.00
2023-04-14T13:34:43.858Z,15.70
2023-04-14T13:37:12.214Z,10.60
2023-04-14T13:39:41.505Z,9.90
2023-04-14T13:42:09.992Z,8.20
2023-04-14T13:44:38.300Z,8.80
2023-04-14T13:47:06.943Z,7.90
2023-04-14T13:49:35.333Z,8.10
2023-04-14T13:52:03.856Z,7.40
2023-04-14T13:54:32.131Z,7.40
2023-04-14T13:57:04.333Z,7.00
2023-04-14T13:59:33.496Z,7.80
2023-04-14T14:02:02.249Z,7.90
2023-04-14T14:04:31.421Z,8.80
2023-04-14T14:07:00.075Z,8.20
2023-04-14T14:09:28.648Z,8.90
2023-04-14T14:11:57.540Z,9.40
2023-04-14T14:14:28.286Z,8.20
2023-04-14T14:16:58.018Z,8.20
2023-04-14T14:19:26.270Z,7.10
2023-04-14T14:21:55.371Z,6.60
2023-04-14T14:24:24.231Z,8.10
2023-04-14T14:26:52.636Z,7.60
2023-04-14T14:29:20.909Z,8.40
2023-04-14T14:31:49.189Z,8.30
2023-04-14T14:34:18.208Z,8.40
2023-04-14T14:36:47.379Z,8.40
2023-04-14T14:39:16.393Z,7.60
2023-04-14T14:41:44.551Z,8.60
2023-04-14T14:44:15.096Z,8.00
2023-04-14T14:46:46.304Z,8.20
2023-04-14T14:49:14.651Z,7.60
2023-04-14T14:51:42.962Z,8.20
2023-04-14T14:54:11.860Z,8.00
2023-04-14T14:56:40.700Z,7.40
2023-04-14T14:59:09.464Z,7.80
2023-04-14T15:01:38.438Z,7.20
2023-04-14T15:04:07.872Z,7.70
2023-04-14T15:06:37.541Z,7.30
2023-04-14T15:09:06.516Z,7.40
2023-04-14T15:11:34.807Z,7.00
2023-04-14T15:14:03.545Z,6.30
2023-04-14T15:16:33.504Z,7.50
2023-04-14T15:19:02.043Z,7.10
2023-04-14T15:21:32.187Z,7.30
2023-04-14T15:24:00.765Z,7.60
2023-04-14T15:26:29.191Z,7.00
2023-04-14T15:28:57.480Z,8.40
2023-04-14T15:31:25.791Z,7.20
2023-04-14T15:33:55.020Z,8.70
2023-04-14T15:36:23.195Z,7.30
2023-04-14T15:38:52.001Z,8.50
2023-04-14T15:41:21.114Z,7.40
2023-04-14T15:43:50.917Z,7.70
2023-04-14T15:46:19.488Z,7.60
2023-04-14T15:48:47.995Z,8.00
2023-04-14T15:51:16.277Z,7.20
2023-04-14T15:53:44.553Z,7.10
2023-04-14T15:56:14.105Z,7.00
2023-04-14T15:58:43.126Z,7.30
2023-04-14T16:01:12.428Z,7.70
2023-04-14T16:03:41.765Z,7.70
2023-04-14T16:06:10.881Z,8.20
2023-04-14T16:08:39.118Z,7.60
2023-04-14T16:11:08.105Z,7.60
2023-04-14T16:13:37.077Z,6.70
2023-04-14T16:16:05.507Z,8.40
2023-04-14T16:18:34.325Z,7.40
2023-04-14T16:21:02.925Z,8.60
2023-04-14T16:23:31.542Z,8.00
2023-04-14T16:25:59.816Z,8.60
2023-04-14T16:28:28.865Z,8.30
2023-04-14T16:31:00.449Z,9.20
2023-04-14T16:33:35.176Z,7.60
2023-04-14T16:36:07.902Z,7.50
2023-04-14T16:38:36.679Z,7.70
2023-04-14T16:41:05.501Z,8.70
2023-04-14T16:43:34.144Z,7.60
2023-04-14T16:46:04.136Z,8.30
2023-04-14T16:48:36.044Z,7.80
2023-04-14T16:51:11.141Z,7.80
2023-04-14T16:53:40.229Z,7.90
2023-04-14T16:56:09.907Z,7.00
2023-04-14T16:58:39.119Z,9.40
2023-04-14T17:01:07.747Z,8.10
2023-04-14T17:03:37.021Z,7.90
2023-04-14T17:06:06.688Z,7.90
2023-04-14T17:08:35.019Z,8.50
2023-04-14T17:11:04.984Z,8.50
2023-04-14T17:13:35.403Z,8.20
2023-04-14T17:16:09.029Z,8.60
2023-04-14T17:18:38.697Z,9.80
2023-04-14T17:21:07.018Z,7.30
2023-04-14T17:23:38.086Z,9.60
2023-04-14T17:26:06.956Z,8.50
2023-04-14T17:28:35.953Z,8.30
2023-04-14T17:31:13.443Z,8.50
2023-04-14T17:33:43.132Z,7.70
2023-04-14T17:36:15.089Z,7.80
2023-04-14T17:38:44.715Z,8.90
2023-04-14T17:41:13.240Z,8.70
2023-04-14T17:43:41.961Z,9.40
2023-04-14T17:46:11.101Z,8.60
2023-04-14T17:48:39.383Z,8.00
2023-04-14T17:51:07.768Z,9.50
2023-04-14T17:53:36.268Z,8.30
2023-04-14T17:56:05.139Z,10.10
2023-04-14T17:58:35.096Z,9.40
2023-04-14T18:01:04.301Z,8.20
2023-04-14T18:03:32.929Z,9.40
2023-04-14T18:06:01.960Z,10.70
2023-04-14T18:08:30.268Z,8.50
2023-04-14T18:10:59.396Z,8.40
2023-04-14T18:13:28.718Z,9.00
2023-04-14T18:15:57.637Z,9.00
2023-04-14T18:18:26.105Z,8.70
2023-04-14T18:20:54.482Z,9.70
2023-04-14T18:23:22.756Z,8.80
2023-04-14T18:28:37.239Z,8.90
2023-04-14T18:31:05.681Z,8.30
2023-04-14T18:33:36.823Z,9.90
2023-04-14T18:36:06.680Z,14.90
2023-04-14T18:38:34.929Z,10.50
2023-04-14T18:41:05.339Z,10.60
2023-04-14T18:43:34.337Z,13.90
2023-04-14T18:46:04.174Z,12.50
2023-04-14T18:48:32.780Z,12.30
2023-04-14T18:51:04.326Z,13.00
2023-04-14T18:53:32.776Z,15.20
2023-04-14T18:56:01.901Z,13.30
2023-04-14T18:58:30.663Z,11.80
2023-04-14T19:00:59.193Z,11.70
2023-04-14T19:03:27.696Z,10.60
2023-04-14T19:05:57.236Z,10.50
2023-04-14T19:08:25.876Z,11.00
2023-04-14T19:10:54.203Z,12.60
2023-04-14T19:13:24.575Z,11.50
2023-04-14T19:16:05.901Z,10.10
2023-04-14T19:18:35.546Z,10.60
2023-04-14T19:21:03.781Z,10.60
2023-04-14T19:23:35.731Z,10.40
2023-04-14T19:26:05.525Z,10.50
2023-04-14T19:28:42.688Z,10.60
2023-04-14T19:31:11.048Z,9.50
2023-04-14T19:33:42.005Z,9.50
2023-04-14T19:36:15.194Z,10.30
2023-04-14T19:38:44.345Z,10.70
2023-04-14T19:41:15.891Z,10.90
2023-04-14T19:43:47.082Z,10.20
2023-04-14T19:46:15.467Z,9.30
2023-04-14T19:48:45.290Z,9.40
2023-04-14T19:51:14.130Z,8.10
2023-04-14T19:53:43.625Z,7.30
2023-04-14T19:56:12.964Z,6.80
2023-04-14T19:58:41.257Z,7.50
2023-04-14T20:01:10.055Z,5.50
2023-04-14T20:03:38.701Z,6.00
2023-04-14T20:06:26.892Z,5.20
2023-04-14T20:08:55.442Z,5.50
2023-04-14T20:11:27.490Z,5.30
2023-04-14T20:13:55.640Z,5.90
2023-04-14T20:16:24.676Z,6.60
2023-04-14T20:18:52.931Z,6.50
2023-04-14T20:21:22.755Z,6.20
2023-04-14T20:23:53.249Z,5.60
2023-04-14T20:26:21.628Z,6.10
2023-04-14T20:28:50.532Z,5.80
2023-04-14T20:31:22.430Z,6.50
2023-04-14T20:33:51.103Z,6.10
2023-04-14T20:36:19.421Z,6.20
2023-04-14T20:38:48.959Z,5.90
2023-04-14T20:41:17.328Z,6.00
2023-04-14T20:43:45.869Z,5.90
2023-04-14T20:46:14.061Z,6.20
2023-04-14T20:48:42.500Z,6.30
2023-04-14T20:51:11.492Z,5.80
2023-04-14T20:53:39.986Z,6.10
2023-04-14T20:56:08.298Z,5.10
2023-04-14T20:58:39.821Z,4.20
2023-04-14T21:01:08.194Z,4.20
2023-04-14T21:03:39.576Z,3.30
2023-04-14T21:06:08.092Z,3.30
2023-04-14T21:08:36.387Z,3.50
2023-04-14T21:11:16.964Z,2.20
2023-04-14T21:15:40.342Z,2.30
2023-04-14T21:16:36.288Z,2.50
2023-04-14T21:19:05.733Z,2.50
2023-04-14T21:21:34.560Z,2.60
2023-04-14T21:24:03.802Z,1.70
2023-04-14T21:26:32.085Z,1.70
2023-04-14T21:29:00.671Z,1.80
2023-04-14T21:31:29.048Z,1.50
2023-04-14T21:33:59.484Z,2.00
2023-04-14T21:36:28.893Z,2.20
2023-04-14T21:38:57.400Z,1.60
2023-04-14T21:41:25.661Z,2.00
2023-04-14T21:43:53.875Z,1.50
2023-04-14T21:46:22.180Z,1.60
2023-04-14T21:48:50.778Z,1.70
2023-04-14T21:51:19.222Z,1.80
2023-04-14T21:53:47.468Z,1.60
2023-04-14T21:56:15.748Z,1.60
2023-04-14T21:58:45.880Z,2.10
2023-04-14T22:01:14.146Z,1.70
2023-04-14T22:03:45.673Z,1.80
2023-04-14T22:06:14.084Z,1.60
2023-04-14T22:08:43.573Z,1.70
2023-04-14T22:11:12.623Z,1.40
2023-04-14T22:13:40.850Z,1.30
2023-04-14T22:16:12.160Z,1.60
2023-04-14T22:18:40.690Z,2.00
2023-04-14T22:21:14.610Z,1.40
2023-04-14T22:23:43.870Z,1.90
2023-04-14T22:26:13.675Z,1.60
2023-04-14T22:28:41.916Z,1.90
2023-04-14T22:31:10.267Z,1.40
2023-04-14T22:33:42.380Z,1.30
2023-04-14T22:36:10.659Z,1.60
2023-04-14T22:38:38.922Z,1.70
2023-04-14T22:41:07.692Z,1.60
2023-04-14T22:43:36.114Z,1.50
2023-04-14T22:46:05.248Z,1.70
2023-04-14T22:48:33.508Z,1.40
2023-04-14T22:51:01.900Z,1.10
2023-04-14T22:53:31.841Z,1.90
2023-04-14T22:56:03.734Z,1.10
2023-04-14T22:58:39.146Z,0.90
2023-04-14T23:01:19.315Z,1.10
2023-04-14T23:03:52.924Z,1.10
2023-04-14T23:06:24.314Z,1.10
2023-04-14T23:08:52.780Z,1.30
2023-04-14T23:11:21.401Z,1.50
2023-04-14T23:13:51.594Z,1.50
2023-04-14T23:16:20.781Z,1.50
2023-04-14T23:18:52.093Z,1.10
2023-04-14T23:21:24.081Z,1.10
2023-04-14T23:23:52.626Z,1.60
2023-04-14T23:26:21.985Z,1.40
2023-04-14T23:28:50.759Z,1.70
2023-04-14T23:31:19.229Z,1.30
2023-04-14T23:33:51.130Z,1.90
2023-04-14T23:36:19.727Z,1.30
2023-04-14T23:38:48.031Z,1.60
2023-04-14T23:41:20.642Z,2.10
2023-04-14T23:43:50.986Z,1.70
2023-04-14T23:46:19.613Z,1.50
2023-04-14T23:48:47.998Z,1.70
2023-04-14T23:51:20.352Z,1.90
2023-04-14T23:53:51.828Z,1.30
2023-04-14T23:56:21.549Z,1.50
2023-04-14T23:58:49.794Z,1.60
